sensor_id;sensor_type;location;lat;lon;timestamp;P1;durP1;ratioP1;P2;durP2;ratioP2
53843;SDS011;39744;53.314;5.710;2022-12-07T00:01:05;16.88;;;2.53;;
53843;SDS011;39744;53.314;5.710;2022-12-07T00:03:51;10.27;;;2.33;;
53843;SDS011;39744;53.314;5.710;2022-12-07T00:06:18;14.75;;;2.03;;
53843;SDS011;39744;53.314;5.710;2022-12-07T00:08:44;9.93;;;1.65;;
53843;SDS011;39744;53.314;5.710;2022-12-07T00:11:11;9.88;;;1.50;;
53843;SDS011;39744;53.314;5.710;2022-12-07T00:13:39;7.90;;;1.65;;
53843;SDS011;39744;53.314;5.710;2022-12-07T00:16:13;4.90;;;0.95;;
53843;SDS011;39744;53.314;5.710;2022-12-07T00:18:42;7.07;;;1.20;;
53843;SDS011;39744;53.314;5.710;2022-12-07T00:21:13;8.02;;;1.10;;
53843;SDS011;39744;53.314;5.710;2022-12-07T00:23:43;4.07;;;0.90;;
53843;SDS011;39744;53.314;5.710;2022-12-07T00:26:11;9.50;;;0.80;;
53843;SDS011;39744;53.314;5.710;2022-12-07T00:28:38;4.65;;;1.13;;
53843;SDS011;39744;53.314;5.710;2022-12-07T00:31:07;6.50;;;1.60;;
53843;SDS011;39744;53.314;5.710;2022-12-07T00:33:36;10.13;;;1.40;;
53843;SDS011;39744;53.314;5.710;2022-12-07T00:36:03;11.85;;;1.77;;
53843;SDS011;39744;53.314;5.710;2022-12-07T00:38:32;6.85;;;1.38;;
53843;SDS011;39744;53.314;5.710;2022-12-07T00:41:01;4.10;;;1.10;;
53843;SDS011;39744;53.314;5.710;2022-12-07T00:43:28;10.65;;;1.63;;
53843;SDS011;39744;53.314;5.710;2022-12-07T00:45:54;12.48;;;2.10;;
53843;SDS011;39744;53.314;5.710;2022-12-07T00:48:20;13.82;;;2.33;;
53843;SDS011;39744;53.314;5.710;2022-12-07T00:50:47;8.60;;;1.95;;
53843;SDS011;39744;53.314;5.710;2022-12-07T00:53:13;13.13;;;1.42;;
53843;SDS011;39744;53.314;5.710;2022-12-07T00:55:38;10.65;;;1.63;;
53843;SDS011;39744;53.314;5.710;2022-12-07T00:58:04;10.45;;;1.92;;
53843;SDS011;39744;53.314;5.710;2022-12-07T01:00:30;7.18;;;1.52;;
53843;SDS011;39744;53.314;5.710;2022-12-07T01:02:56;7.85;;;1.70;;
53843;SDS011;39744;53.314;5.710;2022-12-07T01:05:21;14.60;;;1.60;;
53843;SDS011;39744;53.314;5.710;2022-12-07T01:07:47;7.68;;;1.20;;
53843;SDS011;39744;53.314;5.710;2022-12-07T01:10:13;5.95;;;1.17;;
53843;SDS011;39744;53.314;5.710;2022-12-07T01:12:39;9.68;;;1.30;;
53843;SDS011;39744;53.314;5.710;2022-12-07T01:15:06;7.80;;;1.50;;
53843;SDS011;39744;53.314;5.710;2022-12-07T01:17:32;3.92;;;1.00;;
53843;SDS011;39744;53.314;5.710;2022-12-07T01:19:59;6.95;;;0.95;;
53843;SDS011;39744;53.314;5.710;2022-12-07T01:22:25;10.02;;;1.25;;
53843;SDS011;39744;53.314;5.710;2022-12-07T01:24:50;7.20;;;1.60;;
53843;SDS011;39744;53.314;5.710;2022-12-07T01:27:16;8.70;;;1.40;;
53843;SDS011;39744;53.314;5.710;2022-12-07T01:29:42;9.13;;;1.50;;
53843;SDS011;39744;53.314;5.710;2022-12-07T01:32:07;11.27;;;2.20;;
53843;SDS011;39744;53.314;5.710;2022-12-07T01:34:33;15.25;;;2.10;;
53843;SDS011;39744;53.314;5.710;2022-12-07T01:36:58;14.70;;;2.35;;
53843;SDS011;39744;53.314;5.710;2022-12-07T01:39:25;15.88;;;2.90;;
53843;SDS011;39744;53.314;5.710;2022-12-07T01:41:52;20.52;;;2.53;;
53843;SDS011;39744;53.314;5.710;2022-12-07T01:46:49;13.73;;;2.13;;
53843;SDS011;39744;53.314;5.710;2022-12-07T01:52:26;14.10;;;1.98;;
53843;SDS011;39744;53.314;5.710;2022-12-07T01:54:56;8.75;;;1.88;;
53843;SDS011;39744;53.314;5.710;2022-12-07T01:57:32;12.48;;;1.90;;
53843;SDS011;39744;53.314;5.710;2022-12-07T02:00:04;10.63;;;2.25;;
53843;SDS011;39744;53.314;5.710;2022-12-07T02:02:32;9.70;;;1.80;;
53843;SDS011;39744;53.314;5.710;2022-12-07T02:05:01;13.35;;;2.33;;
53843;SDS011;39744;53.314;5.710;2022-12-07T02:07:27;11.40;;;2.20;;
53843;SDS011;39744;53.314;5.710;2022-12-07T02:09:54;10.23;;;1.83;;
53843;SDS011;39744;53.314;5.710;2022-12-07T02:12:20;11.00;;;2.00;;
53843;SDS011;39744;53.314;5.710;2022-12-07T02:14:48;12.35;;;1.95;;
53843;SDS011;39744;53.314;5.710;2022-12-07T02:17:18;16.65;;;2.25;;
53843;SDS011;39744;53.314;5.710;2022-12-07T02:20:00;8.70;;;1.83;;
53843;SDS011;39744;53.314;5.710;2022-12-07T02:25:43;11.88;;;1.88;;
53843;SDS011;39744;53.314;5.710;2022-12-07T02:28:35;7.95;;;1.95;;
53843;SDS011;39744;53.314;5.710;2022-12-07T02:31:28;7.47;;;1.40;;
53843;SDS011;39744;53.314;5.710;2022-12-07T02:34:07;8.25;;;1.55;;
53843;SDS011;39744;53.314;5.710;2022-12-07T02:36:46;12.43;;;2.05;;
53843;SDS011;39744;53.314;5.710;2022-12-07T02:39:35;6.72;;;1.40;;
53843;SDS011;39744;53.314;5.710;2022-12-07T02:42:09;8.88;;;1.63;;
53843;SDS011;39744;53.314;5.710;2022-12-07T02:47:07;16.60;;;1.90;;
53843;SDS011;39744;53.314;5.710;2022-12-07T02:49:36;12.13;;;1.85;;
53843;SDS011;39744;53.314;5.710;2022-12-07T02:52:04;14.70;;;2.03;;
53843;SDS011;39744;53.314;5.710;2022-12-07T02:54:29;11.68;;;1.98;;
53843;SDS011;39744;53.314;5.710;2022-12-07T02:56:57;12.93;;;1.90;;
53843;SDS011;39744;53.314;5.710;2022-12-07T03:05:31;8.57;;;1.50;;
53843;SDS011;39744;53.314;5.710;2022-12-07T03:11:10;4.68;;;0.68;;
53843;SDS011;39744;53.314;5.710;2022-12-07T03:18:52;2.88;;;0.65;;
53843;SDS011;39744;53.314;5.710;2022-12-07T03:21:34;5.68;;;0.90;;
53843;SDS011;39744;53.314;5.710;2022-12-07T03:24:08;8.63;;;1.15;;
53843;SDS011;39744;53.314;5.710;2022-12-07T03:26:44;12.18;;;1.45;;
53843;SDS011;39744;53.314;5.710;2022-12-07T03:29:17;11.98;;;1.70;;
53843;SDS011;39744;53.314;5.710;2022-12-07T03:32:01;10.48;;;1.92;;
53843;SDS011;39744;53.314;5.710;2022-12-07T03:34:43;6.25;;;1.55;;
53843;SDS011;39744;53.314;5.710;2022-12-07T03:37:26;5.97;;;1.30;;
53843;SDS011;39744;53.314;5.710;2022-12-07T03:42:28;6.97;;;1.48;;
53843;SDS011;39744;53.314;5.710;2022-12-07T03:44:55;11.27;;;1.50;;
53843;SDS011;39744;53.314;5.710;2022-12-07T03:47:25;6.47;;;1.35;;
53843;SDS011;39744;53.314;5.710;2022-12-07T03:50:05;8.93;;;1.33;;
53843;SDS011;39744;53.314;5.710;2022-12-07T03:52:44;13.48;;;1.38;;
53843;SDS011;39744;53.314;5.710;2022-12-07T03:55:25;7.00;;;1.48;;
53843;SDS011;39744;53.314;5.710;2022-12-07T03:57:57;8.15;;;1.38;;
53843;SDS011;39744;53.314;5.710;2022-12-07T04:00:27;11.95;;;1.80;;
53843;SDS011;39744;53.314;5.710;2022-12-07T04:02:54;10.35;;;1.90;;
53843;SDS011;39744;53.314;5.710;2022-12-07T04:05:20;11.50;;;1.98;;
53843;SDS011;39744;53.314;5.710;2022-12-07T04:07:46;12.43;;;2.08;;
53843;SDS011;39744;53.314;5.710;2022-12-07T04:10:12;11.07;;;2.03;;
53843;SDS011;39744;53.314;5.710;2022-12-07T04:12:37;10.68;;;1.98;;
53843;SDS011;39744;53.314;5.710;2022-12-07T04:15:03;9.07;;;1.52;;
53843;SDS011;39744;53.314;5.710;2022-12-07T04:17:29;9.82;;;1.50;;
53843;SDS011;39744;53.314;5.710;2022-12-07T04:19:55;6.95;;;1.50;;
53843;SDS011;39744;53.314;5.710;2022-12-07T04:22:21;9.20;;;1.48;;
53843;SDS011;39744;53.314;5.710;2022-12-07T04:24:46;8.70;;;1.15;;
53843;SDS011;39744;53.314;5.710;2022-12-07T04:27:12;9.50;;;1.75;;
53843;SDS011;39744;53.314;5.710;2022-12-07T04:29:38;9.30;;;1.83;;
53843;SDS011;39744;53.314;5.710;2022-12-07T04:32:03;10.95;;;1.65;;
53843;SDS011;39744;53.314;5.710;2022-12-07T04:34:29;10.95;;;1.52;;
53843;SDS011;39744;53.314;5.710;2022-12-07T04:36:55;17.60;;;2.50;;
53843;SDS011;39744;53.314;5.710;2022-12-07T04:39:22;9.00;;;1.67;;
53843;SDS011;39744;53.314;5.710;2022-12-07T04:41:49;12.88;;;1.90;;
53843;SDS011;39744;53.314;5.710;2022-12-07T04:44:16;13.98;;;2.00;;
53843;SDS011;39744;53.314;5.710;2022-12-07T04:46:42;10.10;;;2.40;;
53843;SDS011;39744;53.314;5.710;2022-12-07T04:49:08;10.25;;;1.67;;
53843;SDS011;39744;53.314;5.710;2022-12-07T04:51:34;10.52;;;1.88;;
53843;SDS011;39744;53.314;5.710;2022-12-07T04:54:00;14.02;;;2.15;;
53843;SDS011;39744;53.314;5.710;2022-12-07T04:56:25;13.32;;;2.03;;
53843;SDS011;39744;53.314;5.710;2022-12-07T04:58:52;12.25;;;1.88;;
53843;SDS011;39744;53.314;5.710;2022-12-07T05:01:19;12.80;;;1.65;;
53843;SDS011;39744;53.314;5.710;2022-12-07T05:03:45;13.77;;;2.15;;
53843;SDS011;39744;53.314;5.710;2022-12-07T05:06:11;20.13;;;2.00;;
53843;SDS011;39744;53.314;5.710;2022-12-07T05:08:38;9.00;;;1.20;;
53843;SDS011;39744;53.314;5.710;2022-12-07T05:11:04;13.55;;;1.83;;
53843;SDS011;39744;53.314;5.710;2022-12-07T05:13:31;10.68;;;1.60;;
53843;SDS011;39744;53.314;5.710;2022-12-07T05:15:57;13.73;;;2.03;;
53843;SDS011;39744;53.314;5.710;2022-12-07T05:18:22;10.80;;;1.75;;
53843;SDS011;39744;53.314;5.710;2022-12-07T05:20:48;11.85;;;1.75;;
53843;SDS011;39744;53.314;5.710;2022-12-07T05:23:14;19.08;;;2.17;;
53843;SDS011;39744;53.314;5.710;2022-12-07T05:25:40;11.48;;;1.55;;
53843;SDS011;39744;53.314;5.710;2022-12-07T05:28:05;9.43;;;1.60;;
53843;SDS011;39744;53.314;5.710;2022-12-07T05:30:31;8.43;;;1.75;;
53843;SDS011;39744;53.314;5.710;2022-12-07T05:32:57;16.10;;;1.98;;
53843;SDS011;39744;53.314;5.710;2022-12-07T05:35:24;20.35;;;2.42;;
53843;SDS011;39744;53.314;5.710;2022-12-07T05:37:50;13.80;;;2.38;;
53843;SDS011;39744;53.314;5.710;2022-12-07T05:40:16;14.80;;;2.30;;
53843;SDS011;39744;53.314;5.710;2022-12-07T05:42:41;10.25;;;2.10;;
53843;SDS011;39744;53.314;5.710;2022-12-07T05:45:07;11.20;;;1.52;;
53843;SDS011;39744;53.314;5.710;2022-12-07T05:47:34;9.40;;;1.80;;
53843;SDS011;39744;53.314;5.710;2022-12-07T05:50:00;8.15;;;1.63;;
53843;SDS011;39744;53.314;5.710;2022-12-07T05:52:27;7.40;;;1.88;;
53843;SDS011;39744;53.314;5.710;2022-12-07T05:54:53;6.70;;;1.58;;
53843;SDS011;39744;53.314;5.710;2022-12-07T05:57:19;11.45;;;1.52;;
53843;SDS011;39744;53.314;5.710;2022-12-07T05:59:45;10.50;;;1.42;;
53843;SDS011;39744;53.314;5.710;2022-12-07T06:02:12;8.93;;;1.83;;
53843;SDS011;39744;53.314;5.710;2022-12-07T06:04:40;9.93;;;1.80;;
53843;SDS011;39744;53.314;5.710;2022-12-07T06:07:07;11.20;;;1.60;;
53843;SDS011;39744;53.314;5.710;2022-12-07T06:09:34;11.48;;;1.77;;
53843;SDS011;39744;53.314;5.710;2022-12-07T06:12:00;10.60;;;2.28;;
53843;SDS011;39744;53.314;5.710;2022-12-07T06:14:44;17.73;;;2.17;;
53843;SDS011;39744;53.314;5.710;2022-12-07T06:17:10;15.38;;;2.08;;
53843;SDS011;39744;53.314;5.710;2022-12-07T06:19:37;8.35;;;1.75;;
53843;SDS011;39744;53.314;5.710;2022-12-07T06:22:03;10.35;;;1.80;;
53843;SDS011;39744;53.314;5.710;2022-12-07T06:24:34;8.32;;;1.48;;
53843;SDS011;39744;53.314;5.710;2022-12-07T06:26:59;12.88;;;2.47;;
53843;SDS011;39744;53.314;5.710;2022-12-07T06:29:25;16.88;;;2.33;;
53843;SDS011;39744;53.314;5.710;2022-12-07T06:31:51;10.30;;;1.90;;
53843;SDS011;39744;53.314;5.710;2022-12-07T06:34:18;9.82;;;1.60;;
53843;SDS011;39744;53.314;5.710;2022-12-07T06:36:45;7.70;;;1.80;;
53843;SDS011;39744;53.314;5.710;2022-12-07T06:39:16;9.60;;;1.70;;
53843;SDS011;39744;53.314;5.710;2022-12-07T06:41:42;10.77;;;1.90;;
53843;SDS011;39744;53.314;5.710;2022-12-07T06:44:08;7.60;;;1.67;;
53843;SDS011;39744;53.314;5.710;2022-12-07T06:46:34;8.90;;;1.60;;
53843;SDS011;39744;53.314;5.710;2022-12-07T06:49:03;16.02;;;1.90;;
53843;SDS011;39744;53.314;5.710;2022-12-07T06:51:29;10.82;;;1.75;;
53843;SDS011;39744;53.314;5.710;2022-12-07T06:53:55;16.17;;;2.22;;
53843;SDS011;39744;53.314;5.710;2022-12-07T06:56:22;13.85;;;2.35;;
53843;SDS011;39744;53.314;5.710;2022-12-07T06:58:48;14.93;;;3.03;;
53843;SDS011;39744;53.314;5.710;2022-12-07T07:01:14;13.82;;;2.03;;
53843;SDS011;39744;53.314;5.710;2022-12-07T07:03:42;13.93;;;2.85;;
53843;SDS011;39744;53.314;5.710;2022-12-07T07:06:08;11.38;;;1.98;;
53843;SDS011;39744;53.314;5.710;2022-12-07T07:08:35;11.68;;;1.65;;
53843;SDS011;39744;53.314;5.710;2022-12-07T07:11:02;13.35;;;2.30;;
53843;SDS011;39744;53.314;5.710;2022-12-07T07:13:28;10.85;;;1.70;;
53843;SDS011;39744;53.314;5.710;2022-12-07T07:15:54;13.48;;;2.08;;
53843;SDS011;39744;53.314;5.710;2022-12-07T07:18:19;11.02;;;2.20;;
53843;SDS011;39744;53.314;5.710;2022-12-07T07:20:47;11.15;;;2.13;;
53843;SDS011;39744;53.314;5.710;2022-12-07T07:23:12;16.30;;;2.35;;
53843;SDS011;39744;53.314;5.710;2022-12-07T07:25:38;15.23;;;2.20;;
53843;SDS011;39744;53.314;5.710;2022-12-07T07:28:04;13.02;;;2.53;;
53843;SDS011;39744;53.314;5.710;2022-12-07T07:30:30;14.40;;;2.15;;
53843;SDS011;39744;53.314;5.710;2022-12-07T07:32:59;15.50;;;2.38;;
53843;SDS011;39744;53.314;5.710;2022-12-07T07:35:27;14.73;;;1.92;;
53843;SDS011;39744;53.314;5.710;2022-12-07T07:37:53;7.55;;;2.13;;
53843;SDS011;39744;53.314;5.710;2022-12-07T07:40:19;11.63;;;2.10;;
53843;SDS011;39744;53.314;5.710;2022-12-07T07:42:52;10.90;;;1.80;;
53843;SDS011;39744;53.314;5.710;2022-12-07T07:45:22;12.73;;;1.80;;
53843;SDS011;39744;53.314;5.710;2022-12-07T07:47:48;8.40;;;1.85;;
53843;SDS011;39744;53.314;5.710;2022-12-07T07:50:14;11.73;;;1.65;;
53843;SDS011;39744;53.314;5.710;2022-12-07T07:52:41;11.63;;;2.10;;
53843;SDS011;39744;53.314;5.710;2022-12-07T07:55:07;14.35;;;2.35;;
53843;SDS011;39744;53.314;5.710;2022-12-07T07:57:34;11.43;;;2.63;;
53843;SDS011;39744;53.314;5.710;2022-12-07T08:00:08;7.43;;;1.70;;
53843;SDS011;39744;53.314;5.710;2022-12-07T08:02:38;11.25;;;2.03;;
53843;SDS011;39744;53.314;5.710;2022-12-07T08:05:04;7.47;;;1.55;;
53843;SDS011;39744;53.314;5.710;2022-12-07T08:07:30;10.23;;;1.40;;
53843;SDS011;39744;53.314;5.710;2022-12-07T08:09:56;18.23;;;1.60;;
53843;SDS011;39744;53.314;5.710;2022-12-07T08:12:22;8.07;;;1.70;;
53843;SDS011;39744;53.314;5.710;2022-12-07T08:14:47;8.15;;;1.33;;
53843;SDS011;39744;53.314;5.710;2022-12-07T08:17:13;6.75;;;1.10;;
53843;SDS011;39744;53.314;5.710;2022-12-07T08:19:39;10.05;;;1.48;;
53843;SDS011;39744;53.314;5.710;2022-12-07T08:22:04;8.45;;;1.60;;
53843;SDS011;39744;53.314;5.710;2022-12-07T08:24:32;13.68;;;1.70;;
53843;SDS011;39744;53.314;5.710;2022-12-07T08:26:58;9.52;;;1.50;;
53843;SDS011;39744;53.314;5.710;2022-12-07T08:29:24;7.70;;;1.48;;
53843;SDS011;39744;53.314;5.710;2022-12-07T08:31:50;6.72;;;1.73;;
53843;SDS011;39744;53.314;5.710;2022-12-07T08:34:16;7.97;;;1.30;;
53843;SDS011;39744;53.314;5.710;2022-12-07T08:36:41;8.70;;;1.83;;
53843;SDS011;39744;53.314;5.710;2022-12-07T08:39:07;5.95;;;1.30;;
53843;SDS011;39744;53.314;5.710;2022-12-07T08:41:33;7.43;;;1.55;;
53843;SDS011;39744;53.314;5.710;2022-12-07T08:43:59;11.50;;;1.80;;
53843;SDS011;39744;53.314;5.710;2022-12-07T08:46:25;12.27;;;2.05;;
53843;SDS011;39744;53.314;5.710;2022-12-07T08:49:04;8.02;;;1.60;;
53843;SDS011;39744;53.314;5.710;2022-12-07T08:51:57;8.82;;;1.90;;
53843;SDS011;39744;53.314;5.710;2022-12-07T08:54:23;6.80;;;1.60;;
53843;SDS011;39744;53.314;5.710;2022-12-07T08:56:49;11.85;;;1.55;;
53843;SDS011;39744;53.314;5.710;2022-12-07T08:59:16;8.02;;;1.42;;
53843;SDS011;39744;53.314;5.710;2022-12-07T09:01:44;9.07;;;1.73;;
53843;SDS011;39744;53.314;5.710;2022-12-07T09:04:09;7.75;;;1.48;;
53843;SDS011;39744;53.314;5.710;2022-12-07T09:06:36;14.40;;;2.13;;
53843;SDS011;39744;53.314;5.710;2022-12-07T09:09:02;10.75;;;2.08;;
53843;SDS011;39744;53.314;5.710;2022-12-07T09:11:29;9.00;;;1.70;;
53843;SDS011;39744;53.314;5.710;2022-12-07T09:13:55;13.38;;;2.10;;
53843;SDS011;39744;53.314;5.710;2022-12-07T09:16:20;9.35;;;1.80;;
53843;SDS011;39744;53.314;5.710;2022-12-07T09:18:46;10.27;;;1.70;;
53843;SDS011;39744;53.314;5.710;2022-12-07T09:21:12;16.58;;;1.95;;
53843;SDS011;39744;53.314;5.710;2022-12-07T09:23:37;14.45;;;1.90;;
53843;SDS011;39744;53.314;5.710;2022-12-07T09:26:03;11.02;;;2.90;;
53843;SDS011;39744;53.314;5.710;2022-12-07T09:28:33;10.35;;;1.58;;
53843;SDS011;39744;53.314;5.710;2022-12-07T09:30:58;9.95;;;1.42;;
53843;SDS011;39744;53.314;5.710;2022-12-07T09:33:24;7.85;;;1.40;;
53843;SDS011;39744;53.314;5.710;2022-12-07T09:35:50;5.50;;;1.10;;
53843;SDS011;39744;53.314;5.710;2022-12-07T09:38:16;11.70;;;1.63;;
53843;SDS011;39744;53.314;5.710;2022-12-07T09:40:46;6.90;;;1.10;;
53843;SDS011;39744;53.314;5.710;2022-12-07T09:43:13;6.85;;;1.02;;
53843;SDS011;39744;53.314;5.710;2022-12-07T09:45:42;5.72;;;1.00;;
53843;SDS011;39744;53.314;5.710;2022-12-07T09:48:22;6.93;;;1.20;;
53843;SDS011;39744;53.314;5.710;2022-12-07T09:50:51;8.32;;;1.40;;
53843;SDS011;39744;53.314;5.710;2022-12-07T09:53:20;7.32;;;1.30;;
53843;SDS011;39744;53.314;5.710;2022-12-07T09:55:51;4.80;;;1.17;;
53843;SDS011;39744;53.314;5.710;2022-12-07T09:58:25;6.65;;;1.25;;
53843;SDS011;39744;53.314;5.710;2022-12-07T10:01:12;10.38;;;1.50;;
53843;SDS011;39744;53.314;5.710;2022-12-07T10:03:54;5.75;;;1.00;;
53843;SDS011;39744;53.314;5.710;2022-12-07T10:06:30;7.03;;;1.00;;
53843;SDS011;39744;53.314;5.710;2022-12-07T10:08:56;6.85;;;1.10;;
53843;SDS011;39744;53.314;5.710;2022-12-07T10:11:26;6.97;;;1.15;;
53843;SDS011;39744;53.314;5.710;2022-12-07T10:13:51;6.38;;;0.90;;
53843;SDS011;39744;53.314;5.710;2022-12-07T10:18:50;6.80;;;1.23;;
53843;SDS011;39744;53.314;5.710;2022-12-07T10:21:17;4.32;;;0.80;;
53843;SDS011;39744;53.314;5.710;2022-12-07T10:23:59;4.25;;;0.88;;
53843;SDS011;39744;53.314;5.710;2022-12-07T10:26:35;6.20;;;0.80;;
53843;SDS011;39744;53.314;5.710;2022-12-07T10:31:41;6.60;;;1.27;;
53843;SDS011;39744;53.314;5.710;2022-12-07T10:34:41;3.80;;;1.20;;
53843;SDS011;39744;53.314;5.710;2022-12-07T10:39:49;10.93;;;1.38;;
53843;SDS011;39744;53.314;5.710;2022-12-07T10:42:21;12.85;;;1.50;;
53843;SDS011;39744;53.314;5.710;2022-12-07T10:44:49;7.95;;;1.30;;
53843;SDS011;39744;53.314;5.710;2022-12-07T10:47:35;5.78;;;1.23;;
53843;SDS011;39744;53.314;5.710;2022-12-07T10:50:18;9.50;;;1.38;;
53843;SDS011;39744;53.314;5.710;2022-12-07T10:56:28;9.30;;;1.42;;
53843;SDS011;39744;53.314;5.710;2022-12-07T11:13:16;17.90;;;2.03;;
53843;SDS011;39744;53.314;5.710;2022-12-07T11:16:00;50.72;;;4.82;;
53843;SDS011;39744;53.314;5.710;2022-12-07T11:18:43;12.25;;;1.73;;
53843;SDS011;39744;53.314;5.710;2022-12-07T11:21:38;11.80;;;2.00;;
53843;SDS011;39744;53.314;5.710;2022-12-07T11:24:14;8.73;;;1.33;;
53843;SDS011;39744;53.314;5.710;2022-12-07T11:35:04;14.05;;;1.63;;
53843;SDS011;39744;53.314;5.710;2022-12-07T11:37:36;5.13;;;1.20;;
53843;SDS011;39744;53.314;5.710;2022-12-07T11:43:13;4.78;;;0.82;;
53843;SDS011;39744;53.314;5.710;2022-12-07T11:45:45;8.90;;;1.35;;
53843;SDS011;39744;53.314;5.710;2022-12-07T11:48:20;4.97;;;1.30;;
53843;SDS011;39744;53.314;5.710;2022-12-07T11:50:54;7.00;;;1.10;;
53843;SDS011;39744;53.314;5.710;2022-12-07T11:56:13;4.00;;;0.77;;
53843;SDS011;39744;53.314;5.710;2022-12-07T12:03:58;7.70;;;1.33;;
53843;SDS011;39744;53.314;5.710;2022-12-07T12:06:30;6.40;;;1.40;;
53843;SDS011;39744;53.314;5.710;2022-12-07T12:17:23;5.57;;;1.10;;
53843;SDS011;39744;53.314;5.710;2022-12-07T12:20:29;5.13;;;1.05;;
53843;SDS011;39744;53.314;5.710;2022-12-07T12:23:10;7.63;;;1.50;;
53843;SDS011;39744;53.314;5.710;2022-12-07T12:25:47;11.27;;;1.00;;
53843;SDS011;39744;53.314;5.710;2022-12-07T12:33:38;5.28;;;0.82;;
53843;SDS011;39744;53.314;5.710;2022-12-07T12:38:50;5.10;;;0.80;;
53843;SDS011;39744;53.314;5.710;2022-12-07T12:46:45;6.25;;;0.90;;
53843;SDS011;39744;53.314;5.710;2022-12-07T12:54:14;5.35;;;0.90;;
53843;SDS011;39744;53.314;5.710;2022-12-07T12:59:30;4.35;;;0.90;;
53843;SDS011;39744;53.314;5.710;2022-12-07T13:15:40;7.75;;;1.33;;
53843;SDS011;39744;53.314;5.710;2022-12-07T13:28:54;3.88;;;1.23;;
53843;SDS011;39744;53.314;5.710;2022-12-07T13:36:59;4.60;;;0.70;;
53843;SDS011;39744;53.314;5.710;2022-12-07T13:39:27;4.35;;;0.70;;
53843;SDS011;39744;53.314;5.710;2022-12-07T13:41:57;3.20;;;0.77;;
53843;SDS011;39744;53.314;5.710;2022-12-07T13:44:25;3.13;;;0.63;;
53843;SDS011;39744;53.314;5.710;2022-12-07T13:49:47;3.55;;;0.73;;
53843;SDS011;39744;53.314;5.710;2022-12-07T13:52:27;2.20;;;0.50;;
53843;SDS011;39744;53.314;5.710;2022-12-07T13:57:30;3.17;;;0.77;;
53843;SDS011;39744;53.314;5.710;2022-12-07T13:59:59;3.38;;;1.25;;
53843;SDS011;39744;53.314;5.710;2022-12-07T14:02:30;5.10;;;0.63;;
53843;SDS011;39744;53.314;5.710;2022-12-07T14:05:09;5.20;;;0.90;;
53843;SDS011;39744;53.314;5.710;2022-12-07T14:07:56;2.92;;;0.68;;
53843;SDS011;39744;53.314;5.710;2022-12-07T14:10:27;5.45;;;0.75;;
53843;SDS011;39744;53.314;5.710;2022-12-07T14:12:56;5.65;;;0.80;;
53843;SDS011;39744;53.314;5.710;2022-12-07T14:15:24;2.45;;;0.70;;
53843;SDS011;39744;53.314;5.710;2022-12-07T14:17:55;2.83;;;0.70;;
53843;SDS011;39744;53.314;5.710;2022-12-07T14:20:33;4.40;;;0.80;;
53843;SDS011;39744;53.314;5.710;2022-12-07T14:23:02;7.80;;;1.55;;
53843;SDS011;39744;53.314;5.710;2022-12-07T14:25:44;6.95;;;1.10;;
53843;SDS011;39744;53.314;5.710;2022-12-07T14:28:27;5.03;;;1.30;;
53843;SDS011;39744;53.314;5.710;2022-12-07T14:30:55;7.13;;;1.20;;
53843;SDS011;39744;53.314;5.710;2022-12-07T14:33:21;8.63;;;2.08;;
53843;SDS011;39744;53.314;5.710;2022-12-07T14:35:48;11.93;;;1.85;;
53843;SDS011;39744;53.314;5.710;2022-12-07T14:38:14;11.07;;;1.38;;
53843;SDS011;39744;53.314;5.710;2022-12-07T14:40:40;5.80;;;0.93;;
53843;SDS011;39744;53.314;5.710;2022-12-07T14:43:10;10.25;;;1.20;;
53843;SDS011;39744;53.314;5.710;2022-12-07T14:45:37;8.00;;;1.20;;
53843;SDS011;39744;53.314;5.710;2022-12-07T14:48:04;6.57;;;1.00;;
53843;SDS011;39744;53.314;5.710;2022-12-07T14:50:31;6.03;;;1.02;;
53843;SDS011;39744;53.314;5.710;2022-12-07T14:53:03;3.63;;;1.35;;
53843;SDS011;39744;53.314;5.710;2022-12-07T14:55:38;4.15;;;0.77;;
53843;SDS011;39744;53.314;5.710;2022-12-07T14:58:05;2.85;;;0.73;;
53843;SDS011;39744;53.314;5.710;2022-12-07T15:00:34;4.85;;;0.63;;
53843;SDS011;39744;53.314;5.710;2022-12-07T15:03:00;7.10;;;0.93;;
53843;SDS011;39744;53.314;5.710;2022-12-07T15:05:26;4.90;;;1.15;;
53843;SDS011;39744;53.314;5.710;2022-12-07T15:07:51;5.40;;;0.80;;
53843;SDS011;39744;53.314;5.710;2022-12-07T15:10:24;8.85;;;1.20;;
53843;SDS011;39744;53.314;5.710;2022-12-07T15:12:54;3.47;;;0.77;;
53843;SDS011;39744;53.314;5.710;2022-12-07T15:15:43;3.40;;;0.70;;
53843;SDS011;39744;53.314;5.710;2022-12-07T15:18:09;5.43;;;0.70;;
53843;SDS011;39744;53.314;5.710;2022-12-07T15:20:35;3.20;;;0.70;;
53843;SDS011;39744;53.314;5.710;2022-12-07T15:23:00;6.55;;;1.08;;
53843;SDS011;39744;53.314;5.710;2022-12-07T15:25:26;5.80;;;0.80;;
53843;SDS011;39744;53.314;5.710;2022-12-07T15:27:52;3.95;;;0.70;;
53843;SDS011;39744;53.314;5.710;2022-12-07T15:30:17;2.00;;;0.60;;
53843;SDS011;39744;53.314;5.710;2022-12-07T15:32:43;5.05;;;0.75;;
53843;SDS011;39744;53.314;5.710;2022-12-07T15:35:09;2.22;;;0.80;;
53843;SDS011;39744;53.314;5.710;2022-12-07T15:37:34;5.05;;;0.70;;
53843;SDS011;39744;53.314;5.710;2022-12-07T15:40:00;4.60;;;0.60;;
53843;SDS011;39744;53.314;5.710;2022-12-07T15:42:27;3.15;;;0.50;;
53843;SDS011;39744;53.314;5.710;2022-12-07T15:44:53;3.63;;;0.80;;
53843;SDS011;39744;53.314;5.710;2022-12-07T15:47:31;5.55;;;0.68;;
53843;SDS011;39744;53.314;5.710;2022-12-07T15:49:58;2.75;;;0.70;;
53843;SDS011;39744;53.314;5.710;2022-12-07T15:52:24;2.20;;;0.60;;
53843;SDS011;39744;53.314;5.710;2022-12-07T15:54:50;3.97;;;1.05;;
53843;SDS011;39744;53.314;5.710;2022-12-07T15:57:15;5.13;;;0.98;;
53843;SDS011;39744;53.314;5.710;2022-12-07T15:59:41;3.22;;;1.00;;
53843;SDS011;39744;53.314;5.710;2022-12-07T16:02:08;5.10;;;1.00;;
53843;SDS011;39744;53.314;5.710;2022-12-07T16:04:35;5.03;;;1.10;;
53843;SDS011;39744;53.314;5.710;2022-12-07T16:07:01;4.65;;;0.70;;
53843;SDS011;39744;53.314;5.710;2022-12-07T16:09:27;3.63;;;0.95;;
53843;SDS011;39744;53.314;5.710;2022-12-07T16:11:53;4.10;;;1.00;;
53843;SDS011;39744;53.314;5.710;2022-12-07T16:14:19;7.10;;;1.17;;
53843;SDS011;39744;53.314;5.710;2022-12-07T16:16:46;8.23;;;1.15;;
53843;SDS011;39744;53.314;5.710;2022-12-07T16:19:12;6.05;;;1.02;;
53843;SDS011;39744;53.314;5.710;2022-12-07T16:21:38;6.03;;;1.23;;
53843;SDS011;39744;53.314;5.710;2022-12-07T16:24:04;8.43;;;1.15;;
53843;SDS011;39744;53.314;5.710;2022-12-07T16:26:30;6.95;;;1.35;;
53843;SDS011;39744;53.314;5.710;2022-12-07T16:28:56;5.80;;;1.45;;
53843;SDS011;39744;53.314;5.710;2022-12-07T16:31:23;7.38;;;1.20;;
53843;SDS011;39744;53.314;5.710;2022-12-07T16:33:50;9.23;;;1.30;;
53843;SDS011;39744;53.314;5.710;2022-12-07T16:36:18;7.82;;;1.40;;
53843;SDS011;39744;53.314;5.710;2022-12-07T16:38:46;11.40;;;1.50;;
53843;SDS011;39744;53.314;5.710;2022-12-07T16:41:13;5.28;;;1.10;;
53843;SDS011;39744;53.314;5.710;2022-12-07T16:43:39;7.65;;;1.10;;
53843;SDS011;39744;53.314;5.710;2022-12-07T16:46:05;3.92;;;0.82;;
53843;SDS011;39744;53.314;5.710;2022-12-07T16:48:31;4.93;;;1.20;;
53843;SDS011;39744;53.314;5.710;2022-12-07T16:51:02;8.80;;;1.60;;
53843;SDS011;39744;53.314;5.710;2022-12-07T16:53:29;4.47;;;0.98;;
53843;SDS011;39744;53.314;5.710;2022-12-07T16:55:55;10.50;;;1.63;;
53843;SDS011;39744;53.314;5.710;2022-12-07T16:58:20;5.78;;;0.90;;
53843;SDS011;39744;53.314;5.710;2022-12-07T17:00:46;9.10;;;1.23;;
53843;SDS011;39744;53.314;5.710;2022-12-07T17:03:12;6.82;;;1.00;;
53843;SDS011;39744;53.314;5.710;2022-12-07T17:05:41;6.30;;;1.00;;
53843;SDS011;39744;53.314;5.710;2022-12-07T17:08:08;5.35;;;0.90;;
53843;SDS011;39744;53.314;5.710;2022-12-07T17:10:35;3.22;;;0.80;;
53843;SDS011;39744;53.314;5.710;2022-12-07T17:13:03;4.95;;;0.88;;